This is the latest recevied weather packets stored in our database for station/object NK7E-1. If no packets are shown the sender has not sent any weather packets the latest 10 day(s).
| Time | Temp. | Humidity | Pressure | Rain* | Wind** | Luminosity | Snow |
|---|---|---|---|---|---|---|---|
| 1777943401 | 18.33° C | 45% | 1014.2 hPa | 0.25 mm | - | - | - |
| 1777942801 | 18.89° C | 44% | 1014 hPa | 0.25 mm | - | - | - |
| 1777942201 | 18.89° C | 43% | 1014.1 hPa | 0.25 mm | - | - | - |
| 1777941602 | 18.89° C | 46% | 1014.4 hPa | 0.25 mm | - | - | - |
| 1777941000 | 18.89° C | 49% | 1014.5 hPa | 0.25 mm | - | - | - |
| 1777940401 | 19.44° C | 48% | 1014.6 hPa | 0 mm | - | - | - |
| 1777939800 | 20° C | 43% | 1014.2 hPa | 0 mm | - | - | - |
| 1777939203 | 21.11° C | 39% | 1014.4 hPa | 0 mm | - | - | - |
| 1777938601 | 22.22° C | 34% | 1014 hPa | 0 mm | - | - | - |
| 1777938001 | 22.22° C | 33% | 1013.7 hPa | 0 mm | - | - | - |
| 1777937400 | 22.22° C | 35% | 1014 hPa | 0 mm | - | - | - |
| 1777936802 | 21.67° C | 37% | 1014.4 hPa | 0 mm | - | - | - |
| 1777936200 | 22.78° C | 31% | 1014.5 hPa | 0 mm | - | - | - |
| 1777935603 | 23.89° C | 27% | 1014.5 hPa | 0 mm | - | - | - |
| 1777935001 | 24.44° C | 24% | 1014.1 hPa | 0 mm | - | - | - |
| 1777934402 | 24.44° C | 22% | 1013.9 hPa | 0 mm | - | - | - |
| 1777933800 | 25.56° C | 21% | 1013.9 hPa | 0 mm | - | - | - |
| 1777933202 | 25.56° C | 19% | 1013.8 hPa | 0 mm | - | - | - |
| 1777932601 | 26.11° C | 18% | 1013.6 hPa | 0 mm | - | - | - |
| 1777932002 | 26.67° C | 19% | 1013.8 hPa | 0 mm | - | - | - |
| 1777931402 | 27.22° C | 15% | 1013.8 hPa | 0 mm | - | - | - |
| 1777930800 | 27.22° C | 15% | 1013.8 hPa | 0 mm | - | - | - |
| 1777930202 | 27.78° C | 15% | 1013.7 hPa | 0 mm | - | - | - |
| 1777929601 | 28.33° C | 16% | 1013.6 hPa | 0 mm | - | - | - |
| 1777929001 | 27.78° C | 17% | 1013.3 hPa | 0 mm | - | - | - |
* Rain latest hour (hover to see other rain measurements)
** Current wind speed in m/s (hover to see current wind gust speed)